LTBY Airport Information

Runway Information
Runway 09 Length 8261 ft width 98 ft
Elevation 2593 ft Threshold 0 ft Heading 93
Runway 27 Length 8261 ft Width 98 ft
Elevation 2580 ft Threshold 0 ft Heading 273
Airport Frequencies
Type TWR Name TWR Frequency 123.75 MHZ
Airport Navaids
Type VOR-DME Name Eskisehir Frequency 108200 KHZ
Type NDB Name Eskisehir Frequency 372 KHZ
Airport Weather Information & NOTAM
ADDS - METARS form results

(2012 UTC 23 October 2018)
Data provider http://aviationweather.gov/metar/data/
 
METAR text: LTBY 231950Z VRB02KT 9999 SCT030 BKN100 13/11 Q1015
Conditions at: LTBY (ANADOLU , TR) observed 1950 UTC 23 October 2018
Temperature: 13.0°C (55°F)
Dewpoint: 11.0°C (52°F) [RH = 88%]
Pressure (altimeter): 29.97 inches Hg (1015.0 mb)
Winds: variable direction winds at 2 MPH (2 knots; 1.0 m/s)
Visibility: 6 or more miles (10+ km)
Ceiling: 10000 feet AGL
Clouds: scattered clouds at 3000 feet AGL
broken clouds at 10000 feet AGL
Weather: no significant weather observed at this time

Forecast for: LTBY (ANADOLU , TR)
Text: TAF LTBY 231940Z 2321/2406 VRB02KT 9999 SCT040 BKN100
Forecast period: 2100 UTC 23 October 2018 to 0600 UTC 24 October 2018
Forecast type: FROM: standard forecast or significant change
Winds: variable direction winds at 2 MPH (2 knots; 1.0 m/s)
Visibility: 6 or more miles 10+ km)
Ceiling: 10000 feet AGL
Clouds: scattered clouds at 4000 feet AGL
broken clouds at 10000 feet AGL
Weather: no significant weather forecast for this period